sensor_id;sensor_type;location;lat;lon;timestamp;pressure;altitude;pressure_sealevel;temperature;humidity
60355;BME280;46198;51.464;-0.066;2023-03-05T00:01:29;102515.59;;;5.70;85.34
60355;BME280;46198;51.464;-0.066;2023-03-05T00:03:59;102514.88;;;5.68;85.47
60355;BME280;46198;51.464;-0.066;2023-03-05T00:06:29;102511.47;;;5.66;85.14
60355;BME280;46198;51.464;-0.066;2023-03-05T00:08:58;102504.25;;;5.67;84.52
60355;BME280;46198;51.464;-0.066;2023-03-05T00:11:27;102502.56;;;5.66;84.73
60355;BME280;46198;51.464;-0.066;2023-03-05T00:13:57;102519.72;;;5.65;84.57
60355;BME280;46198;51.464;-0.066;2023-03-05T00:16:27;102505.25;;;5.66;84.15
60355;BME280;46198;51.464;-0.066;2023-03-05T00:18:57;102506.38;;;5.63;84.25
60355;BME280;46198;51.464;-0.066;2023-03-05T00:21:27;102496.91;;;5.59;85.28
60355;BME280;46198;51.464;-0.066;2023-03-05T00:23:57;102487.81;;;5.60;85.80
60355;BME280;46198;51.464;-0.066;2023-03-05T00:26:28;102492.50;;;5.58;84.34
60355;BME280;46198;51.464;-0.066;2023-03-05T00:28:57;102495.50;;;5.55;84.23
60355;BME280;46198;51.464;-0.066;2023-03-05T00:31:27;102503.72;;;5.53;83.98
60355;BME280;46198;51.464;-0.066;2023-03-05T00:33:57;102492.50;;;5.58;83.81
60355;BME280;46198;51.464;-0.066;2023-03-05T00:36:26;102492.53;;;5.48;83.63
60355;BME280;46198;51.464;-0.066;2023-03-05T00:38:54;102491.66;;;5.48;83.61
60355;BME280;46198;51.464;-0.066;2023-03-05T00:41:24;102482.31;;;5.52;84.27
60355;BME280;46198;51.464;-0.066;2023-03-05T00:43:52;102476.22;;;5.50;84.42
60355;BME280;46198;51.464;-0.066;2023-03-05T00:46:21;102480.34;;;5.54;84.50
60355;BME280;46198;51.464;-0.066;2023-03-05T00:48:49;102480.16;;;5.55;86.20
60355;BME280;46198;51.464;-0.066;2023-03-05T00:51:17;102484.00;;;5.53;84.01
60355;BME280;46198;51.464;-0.066;2023-03-05T00:53:45;102477.22;;;5.49;84.82
60355;BME280;46198;51.464;-0.066;2023-03-05T00:56:13;102468.44;;;5.47;84.54
60355;BME280;46198;51.464;-0.066;2023-03-05T00:58:43;102472.38;;;5.52;83.74
60355;BME280;46198;51.464;-0.066;2023-03-05T01:01:11;102473.69;;;5.48;83.63
60355;BME280;46198;51.464;-0.066;2023-03-05T01:03:39;102466.28;;;5.50;84.48
60355;BME280;46198;51.464;-0.066;2023-03-05T01:06:10;102466.00;;;5.53;85.08
60355;BME280;46198;51.464;-0.066;2023-03-05T01:08:39;102462.63;;;5.51;84.38
60355;BME280;46198;51.464;-0.066;2023-03-05T01:11:07;102452.38;;;5.55;85.03
60355;BME280;46198;51.464;-0.066;2023-03-05T01:13:36;102453.66;;;5.51;82.84
60355;BME280;46198;51.464;-0.066;2023-03-05T01:16:06;102453.94;;;5.48;83.25
60355;BME280;46198;51.464;-0.066;2023-03-05T01:18:36;102450.59;;;5.46;83.15
60355;BME280;46198;51.464;-0.066;2023-03-05T01:21:05;102448.16;;;5.43;83.65
60355;BME280;46198;51.464;-0.066;2023-03-05T01:23:33;102447.59;;;5.49;84.87
60355;BME280;46198;51.464;-0.066;2023-03-05T01:26:04;102439.94;;;5.44;83.56
60355;BME280;46198;51.464;-0.066;2023-03-05T01:28:32;102444.47;;;5.44;84.28
60355;BME280;46198;51.464;-0.066;2023-03-05T01:31:00;102438.09;;;5.45;84.51
60355;BME280;46198;51.464;-0.066;2023-03-05T01:33:29;102430.00;;;5.45;83.99
60355;BME280;46198;51.464;-0.066;2023-03-05T01:35:57;102432.56;;;5.46;84.31
60355;BME280;46198;51.464;-0.066;2023-03-05T01:38:25;102434.25;;;5.47;84.44
60355;BME280;46198;51.464;-0.066;2023-03-05T01:40:53;102421.78;;;5.46;85.39
60355;BME280;46198;51.464;-0.066;2023-03-05T01:43:24;102422.22;;;5.42;83.54
60355;BME280;46198;51.464;-0.066;2023-03-05T01:46:31;102410.44;;;5.43;84.28
60355;BME280;46198;51.464;-0.066;2023-03-05T01:49:05;102406.34;;;5.39;81.54
60355;BME280;46198;51.464;-0.066;2023-03-05T01:51:37;102402.25;;;5.34;82.05
60355;BME280;46198;51.464;-0.066;2023-03-05T01:54:08;102397.88;;;5.33;82.75
60355;BME280;46198;51.464;-0.066;2023-03-05T01:56:38;102405.66;;;5.37;83.64
60355;BME280;46198;51.464;-0.066;2023-03-05T01:59:07;102401.25;;;5.36;82.08
60355;BME280;46198;51.464;-0.066;2023-03-05T02:01:38;102391.78;;;5.31;81.82
60355;BME280;46198;51.464;-0.066;2023-03-05T02:04:10;102390.78;;;5.32;81.25
60355;BME280;46198;51.464;-0.066;2023-03-05T02:06:42;102389.25;;;5.30;82.09
60355;BME280;46198;51.464;-0.066;2023-03-05T02:09:10;102384.00;;;5.28;82.14
60355;BME280;46198;51.464;-0.066;2023-03-05T02:11:40;102376.63;;;5.30;82.41
60355;BME280;46198;51.464;-0.066;2023-03-05T02:14:08;102377.88;;;5.26;80.20
60355;BME280;46198;51.464;-0.066;2023-03-05T02:16:37;102379.59;;;5.27;81.97
60355;BME280;46198;51.464;-0.066;2023-03-05T02:19:10;102381.47;;;5.27;80.84
60355;BME280;46198;51.464;-0.066;2023-03-05T02:21:41;102375.97;;;5.19;81.94
60355;BME280;46198;51.464;-0.066;2023-03-05T02:24:11;102377.41;;;5.13;80.27
60355;BME280;46198;51.464;-0.066;2023-03-05T02:26:40;102369.16;;;5.15;80.59
60355;BME280;46198;51.464;-0.066;2023-03-05T02:29:13;102362.22;;;5.12;81.40
60355;BME280;46198;51.464;-0.066;2023-03-05T02:31:44;102364.19;;;5.20;81.42
60355;BME280;46198;51.464;-0.066;2023-03-05T02:34:13;102362.63;;;5.17;81.40
60355;BME280;46198;51.464;-0.066;2023-03-05T02:36:42;102353.28;;;5.21;83.08
60355;BME280;46198;51.464;-0.066;2023-03-05T02:39:11;102347.00;;;5.21;82.19
60355;BME280;46198;51.464;-0.066;2023-03-05T02:41:39;102350.47;;;5.13;82.04
60355;BME280;46198;51.464;-0.066;2023-03-05T02:44:07;102336.00;;;5.04;80.53
60355;BME280;46198;51.464;-0.066;2023-03-05T02:46:35;102340.25;;;5.07;81.56
60355;BME280;46198;51.464;-0.066;2023-03-05T02:49:03;102336.28;;;5.11;81.31
60355;BME280;46198;51.464;-0.066;2023-03-05T02:51:32;102338.28;;;5.09;81.74
60355;BME280;46198;51.464;-0.066;2023-03-05T02:54:01;102337.97;;;5.12;82.18
60355;BME280;46198;51.464;-0.066;2023-03-05T02:56:30;102327.50;;;5.09;80.81
60355;BME280;46198;51.464;-0.066;2023-03-05T02:58:59;102329.91;;;5.12;81.92
60355;BME280;46198;51.464;-0.066;2023-03-05T03:01:28;102325.81;;;5.08;81.45
60355;BME280;46198;51.464;-0.066;2023-03-05T03:03:56;102318.72;;;5.07;82.89
60355;BME280;46198;51.464;-0.066;2023-03-05T03:06:25;102319.44;;;5.09;82.61
60355;BME280;46198;51.464;-0.066;2023-03-05T03:08:53;102313.91;;;5.10;83.42
60355;BME280;46198;51.464;-0.066;2023-03-05T03:11:22;102307.94;;;5.07;82.47
60355;BME280;46198;51.464;-0.066;2023-03-05T03:13:50;102307.66;;;5.10;82.69
60355;BME280;46198;51.464;-0.066;2023-03-05T03:16:18;102303.28;;;5.09;82.63
60355;BME280;46198;51.464;-0.066;2023-03-05T03:18:47;102301.44;;;5.09;83.26
60355;BME280;46198;51.464;-0.066;2023-03-05T03:21:17;102292.91;;;5.14;83.79
60355;BME280;46198;51.464;-0.066;2023-03-05T03:23:45;102284.31;;;5.10;83.42
60355;BME280;46198;51.464;-0.066;2023-03-05T03:26:13;102288.53;;;5.13;84.62
60355;BME280;46198;51.464;-0.066;2023-03-05T03:28:43;102277.91;;;5.11;83.63
60355;BME280;46198;51.464;-0.066;2023-03-05T03:31:11;102279.66;;;5.03;81.92
60355;BME280;46198;51.464;-0.066;2023-03-05T03:33:39;102274.97;;;5.05;83.56
60355;BME280;46198;51.464;-0.066;2023-03-05T03:36:07;102274.97;;;5.05;82.87
60355;BME280;46198;51.464;-0.066;2023-03-05T03:38:35;102272.28;;;5.05;84.12
60355;BME280;46198;51.464;-0.066;2023-03-05T03:41:04;102271.56;;;5.03;83.03
60355;BME280;46198;51.464;-0.066;2023-03-05T03:43:33;102266.91;;;5.05;83.24
60355;BME280;46198;51.464;-0.066;2023-03-05T03:46:04;102269.75;;;4.94;82.76
60355;BME280;46198;51.464;-0.066;2023-03-05T03:48:32;102264.09;;;4.97;82.72
60355;BME280;46198;51.464;-0.066;2023-03-05T03:51:03;102266.66;;;4.88;82.44
60355;BME280;46198;51.464;-0.066;2023-03-05T03:53:31;102260.84;;;4.93;81.98
60355;BME280;46198;51.464;-0.066;2023-03-05T03:56:00;102260.00;;;4.93;82.37
60355;BME280;46198;51.464;-0.066;2023-03-05T03:58:28;102251.94;;;4.83;81.75
60355;BME280;46198;51.464;-0.066;2023-03-05T04:00:56;102248.09;;;4.85;82.17
60355;BME280;46198;51.464;-0.066;2023-03-05T04:03:25;102252.00;;;4.73;81.93
60355;BME280;46198;51.464;-0.066;2023-03-05T04:05:53;102247.69;;;4.80;82.99
60355;BME280;46198;51.464;-0.066;2023-03-05T04:08:21;102249.84;;;4.77;82.48
60355;BME280;46198;51.464;-0.066;2023-03-05T04:10:49;102251.25;;;4.81;82.99
60355;BME280;46198;51.464;-0.066;2023-03-05T04:13:17;102251.41;;;4.79;82.55
60355;BME280;46198;51.464;-0.066;2023-03-05T04:15:45;102237.13;;;4.69;82.29
60355;BME280;46198;51.464;-0.066;2023-03-05T04:18:13;102242.63;;;4.77;82.91
60355;BME280;46198;51.464;-0.066;2023-03-05T04:20:43;102238.25;;;4.76;82.73
60355;BME280;46198;51.464;-0.066;2023-03-05T04:23:11;102241.41;;;4.62;81.60
60355;BME280;46198;51.464;-0.066;2023-03-05T04:25:39;102232.03;;;4.66;82.13
60355;BME280;46198;51.464;-0.066;2023-03-05T04:28:09;102232.63;;;4.60;83.47
60355;BME280;46198;51.464;-0.066;2023-03-05T04:30:38;102231.75;;;4.69;83.48
60355;BME280;46198;51.464;-0.066;2023-03-05T04:33:06;102229.34;;;4.66;83.55
60355;BME280;46198;51.464;-0.066;2023-03-05T04:35:34;102227.38;;;4.68;82.37
60355;BME280;46198;51.464;-0.066;2023-03-05T04:38:03;102219.72;;;4.63;82.75
60355;BME280;46198;51.464;-0.066;2023-03-05T04:40:32;102221.75;;;4.61;83.05
60355;BME280;46198;51.464;-0.066;2023-03-05T04:43:00;102218.47;;;4.58;82.88
60355;BME280;46198;51.464;-0.066;2023-03-05T04:45:28;102216.91;;;4.55;82.18
60355;BME280;46198;51.464;-0.066;2023-03-05T04:47:56;102212.84;;;4.51;83.02
60355;BME280;46198;51.464;-0.066;2023-03-05T04:50:24;102214.94;;;4.57;83.54
60355;BME280;46198;51.464;-0.066;2023-03-05T04:52:53;102214.34;;;4.63;83.01
60355;BME280;46198;51.464;-0.066;2023-03-05T04:55:22;102220.00;;;4.70;83.65
60355;BME280;46198;51.464;-0.066;2023-03-05T04:57:50;102209.38;;;4.69;83.23
60355;BME280;46198;51.464;-0.066;2023-03-05T05:00:19;102205.28;;;4.64;81.79
60355;BME280;46198;51.464;-0.066;2023-03-05T05:02:48;102208.81;;;4.65;82.22
60355;BME280;46198;51.464;-0.066;2023-03-05T05:05:19;102201.72;;;4.64;81.48
60355;BME280;46198;51.464;-0.066;2023-03-05T05:07:47;102201.06;;;4.62;81.10
60355;BME280;46198;51.464;-0.066;2023-03-05T05:10:15;102194.56;;;4.55;81.01
60355;BME280;46198;51.464;-0.066;2023-03-05T05:12:45;102184.53;;;4.47;81.40
60355;BME280;46198;51.464;-0.066;2023-03-05T05:15:13;102184.94;;;4.52;82.82
60355;BME280;46198;51.464;-0.066;2023-03-05T05:17:41;102181.94;;;4.55;81.32
60355;BME280;46198;51.464;-0.066;2023-03-05T05:20:10;102179.72;;;4.51;80.60
60355;BME280;46198;51.464;-0.066;2023-03-05T05:22:39;102174.19;;;4.52;81.42
60355;BME280;46198;51.464;-0.066;2023-03-05T05:25:08;102174.72;;;4.56;80.67
60355;BME280;46198;51.464;-0.066;2023-03-05T05:27:36;102172.75;;;4.58;82.00
60355;BME280;46198;51.464;-0.066;2023-03-05T05:30:07;102169.81;;;4.51;81.46
60355;BME280;46198;51.464;-0.066;2023-03-05T05:32:36;102157.78;;;4.46;82.35
60355;BME280;46198;51.464;-0.066;2023-03-05T05:35:05;102161.16;;;4.48;84.22
60355;BME280;46198;51.464;-0.066;2023-03-05T05:37:33;102168.84;;;4.42;85.79
60355;BME280;46198;51.464;-0.066;2023-03-05T05:40:01;102162.47;;;4.43;86.00
60355;BME280;46198;51.464;-0.066;2023-03-05T05:42:32;102163.19;;;4.46;86.57
60355;BME280;46198;51.464;-0.066;2023-03-05T05:45:00;102163.84;;;4.48;86.24
60355;BME280;46198;51.464;-0.066;2023-03-05T05:47:30;102159.34;;;4.48;86.40
60355;BME280;46198;51.464;-0.066;2023-03-05T05:49:58;102154.63;;;4.50;85.78
60355;BME280;46198;51.464;-0.066;2023-03-05T05:52:26;102152.97;;;4.49;85.88
60355;BME280;46198;51.464;-0.066;2023-03-05T05:54:54;102148.13;;;4.53;86.20
60355;BME280;46198;51.464;-0.066;2023-03-05T05:57:22;102147.03;;;4.46;86.32
60355;BME280;46198;51.464;-0.066;2023-03-05T05:59:50;102133.72;;;4.44;86.21
60355;BME280;46198;51.464;-0.066;2023-03-05T06:02:18;102140.22;;;4.51;85.86
60355;BME280;46198;51.464;-0.066;2023-03-05T06:04:48;102133.72;;;4.44;86.96
60355;BME280;46198;51.464;-0.066;2023-03-05T06:07:16;102141.38;;;4.39;87.09
60355;BME280;46198;51.464;-0.066;2023-03-05T06:09:44;102138.03;;;4.27;88.14
60355;BME280;46198;51.464;-0.066;2023-03-05T06:12:12;102136.91;;;4.30;88.14
60355;BME280;46198;51.464;-0.066;2023-03-05T06:14:41;102140.97;;;4.34;87.38
60355;BME280;46198;51.464;-0.066;2023-03-05T06:17:09;102141.84;;;4.34;87.63
60355;BME280;46198;51.464;-0.066;2023-03-05T06:19:42;102141.69;;;4.36;87.28
60355;BME280;46198;51.464;-0.066;2023-03-05T06:22:12;102140.84;;;4.35;88.08
60355;BME280;46198;51.464;-0.066;2023-03-05T06:24:40;102149.03;;;4.34;87.79
60355;BME280;46198;51.464;-0.066;2023-03-05T06:27:08;102154.72;;;4.31;87.79
60355;BME280;46198;51.464;-0.066;2023-03-05T06:29:36;102142.97;;;4.32;88.63
60355;BME280;46198;51.464;-0.066;2023-03-05T06:32:04;102136.06;;;4.29;87.92
60355;BME280;46198;51.464;-0.066;2023-03-05T06:34:33;102125.00;;;4.32;87.48
60355;BME280;46198;51.464;-0.066;2023-03-05T06:37:01;102133.38;;;4.29;88.09
60355;BME280;46198;51.464;-0.066;2023-03-05T06:39:30;102134.22;;;4.30;87.96
60355;BME280;46198;51.464;-0.066;2023-03-05T06:42:03;102141.03;;;4.24;87.24
60355;BME280;46198;51.464;-0.066;2023-03-05T06:44:31;102132.38;;;4.30;87.44
60355;BME280;46198;51.464;-0.066;2023-03-05T06:46:59;102137.19;;;4.27;87.76
60355;BME280;46198;51.464;-0.066;2023-03-05T06:49:27;102134.50;;;4.27;87.98
60355;BME280;46198;51.464;-0.066;2023-03-05T06:51:55;102126.44;;;4.27;87.92
60355;BME280;46198;51.464;-0.066;2023-03-05T06:54:23;102131.81;;;4.27;88.07
60355;BME280;46198;51.464;-0.066;2023-03-05T06:56:52;102127.59;;;4.24;87.62
60355;BME280;46198;51.464;-0.066;2023-03-05T06:59:20;102126.16;;;4.20;87.06
60355;BME280;46198;51.464;-0.066;2023-03-05T07:01:49;102124.38;;;4.11;87.59
60355;BME280;46198;51.464;-0.066;2023-03-05T07:04:17;102128.59;;;4.13;87.71
60355;BME280;46198;51.464;-0.066;2023-03-05T07:06:45;102126.31;;;4.18;87.82
60355;BME280;46198;51.464;-0.066;2023-03-05T07:09:15;102126.75;;;4.14;87.37
60355;BME280;46198;51.464;-0.066;2023-03-05T07:11:43;102120.38;;;4.15;87.09
60355;BME280;46198;51.464;-0.066;2023-03-05T07:14:12;102128.50;;;3.95;87.83
60355;BME280;46198;51.464;-0.066;2023-03-05T07:16:40;102125.09;;;4.03;88.13
60355;BME280;46198;51.464;-0.066;2023-03-05T07:19:09;102128.19;;;4.08;87.82
60355;BME280;46198;51.464;-0.066;2023-03-05T07:21:37;102118.69;;;4.04;87.42
60355;BME280;46198;51.464;-0.066;2023-03-05T07:24:06;102123.66;;;4.09;87.14
60355;BME280;46198;51.464;-0.066;2023-03-05T07:26:34;102121.69;;;4.11;87.27
60355;BME280;46198;51.464;-0.066;2023-03-05T07:29:03;102120.38;;;4.15;87.51
60355;BME280;46198;51.464;-0.066;2023-03-05T07:31:32;102124.78;;;4.16;87.48
60355;BME280;46198;51.464;-0.066;2023-03-05T07:34:01;102119.69;;;4.13;85.04
60355;BME280;46198;51.464;-0.066;2023-03-05T07:36:30;102121.13;;;4.07;80.64
60355;BME280;46198;51.464;-0.066;2023-03-05T07:39:01;102116.59;;;4.08;82.17
60355;BME280;46198;51.464;-0.066;2023-03-05T07:41:30;102115.16;;;4.13;82.91
60355;BME280;46198;51.464;-0.066;2023-03-05T07:43:59;102112.91;;;4.09;79.50
60355;BME280;46198;51.464;-0.066;2023-03-05T07:46:28;102112.91;;;4.09;79.72
60355;BME280;46198;51.464;-0.066;2023-03-05T07:48:58;102107.22;;;4.12;77.91
60355;BME280;46198;51.464;-0.066;2023-03-05T07:51:27;102114.88;;;4.07;76.82
60355;BME280;46198;51.464;-0.066;2023-03-05T07:53:56;102118.03;;;4.02;77.24
60355;BME280;46198;51.464;-0.066;2023-03-05T07:56:26;102121.81;;;4.09;79.82
60355;BME280;46198;51.464;-0.066;2023-03-05T08:03:04;102113.31;;;4.14;79.32
60355;BME280;46198;51.464;-0.066;2023-03-05T08:05:33;102109.06;;;4.21;79.35
60355;BME280;46198;51.464;-0.066;2023-03-05T08:08:27;102108.66;;;4.16;76.64
60355;BME280;46198;51.464;-0.066;2023-03-05T08:10:55;102110.09;;;4.00;76.70
60355;BME280;46198;51.464;-0.066;2023-03-05T08:13:23;102115.59;;;4.09;75.25
60355;BME280;46198;51.464;-0.066;2023-03-05T08:15:51;102105.78;;;4.17;77.81
60355;BME280;46198;51.464;-0.066;2023-03-05T08:18:19;102105.22;;;4.24;79.28
60355;BME280;46198;51.464;-0.066;2023-03-05T08:20:48;102104.34;;;4.23;77.59
60355;BME280;46198;51.464;-0.066;2023-03-05T08:23:16;102095.63;;;4.21;76.09
60355;BME280;46198;51.464;-0.066;2023-03-05T08:25:44;102101.84;;;4.21;76.40
60355;BME280;46198;51.464;-0.066;2023-03-05T08:28:12;102102.69;;;4.22;75.58
60355;BME280;46198;51.464;-0.066;2023-03-05T08:30:42;102102.06;;;4.28;77.09
60355;BME280;46198;51.464;-0.066;2023-03-05T08:33:10;102106.19;;;4.32;76.95
60355;BME280;46198;51.464;-0.066;2023-03-05T08:35:38;102095.56;;;4.31;73.75
60355;BME280;46198;51.464;-0.066;2023-03-05T08:38:07;102100.09;;;4.30;74.28
60355;BME280;46198;51.464;-0.066;2023-03-05T08:40:35;102095.53;;;4.40;77.70
60355;BME280;46198;51.464;-0.066;2023-03-05T08:43:03;102096.25;;;4.42;75.64
60355;BME280;46198;51.464;-0.066;2023-03-05T08:45:32;102091.53;;;4.44;74.96
60355;BME280;46198;51.464;-0.066;2023-03-05T08:48:00;102085.19;;;4.46;75.41
60355;BME280;46198;51.464;-0.066;2023-03-05T08:50:28;102093.56;;;4.42;71.67
60355;BME280;46198;51.464;-0.066;2023-03-05T08:52:56;102090.69;;;4.44;73.54
60355;BME280;46198;51.464;-0.066;2023-03-05T08:55:27;102076.50;;;4.52;73.53
60355;BME280;46198;51.464;-0.066;2023-03-05T08:57:55;102083.25;;;4.56;71.69
60355;BME280;46198;51.464;-0.066;2023-03-05T09:00:23;102082.91;;;4.51;74.54
60355;BME280;46198;51.464;-0.066;2023-03-05T09:02:51;102086.53;;;4.59;74.33
60355;BME280;46198;51.464;-0.066;2023-03-05T09:05:19;102081.53;;;4.64;75.46
60355;BME280;46198;51.464;-0.066;2023-03-05T09:07:47;102077.03;;;4.55;72.19
60355;BME280;46198;51.464;-0.066;2023-03-05T09:10:15;102062.97;;;4.43;70.71
60355;BME280;46198;51.464;-0.066;2023-03-05T09:12:46;102064.81;;;4.43;70.89
60355;BME280;46198;51.464;-0.066;2023-03-05T09:15:14;102055.91;;;4.42;71.72
60355;BME280;46198;51.464;-0.066;2023-03-05T09:17:42;102048.09;;;4.39;69.92
60355;BME280;46198;51.464;-0.066;2023-03-05T09:20:11;102048.00;;;4.31;71.47
60355;BME280;46198;51.464;-0.066;2023-03-05T09:22:40;102042.72;;;4.39;72.45
60355;BME280;46198;51.464;-0.066;2023-03-05T09:25:10;102041.28;;;4.45;73.45
60355;BME280;46198;51.464;-0.066;2023-03-05T09:27:38;102045.88;;;4.62;75.31
60355;BME280;46198;51.464;-0.066;2023-03-05T09:30:10;102036.66;;;4.65;73.44
60355;BME280;46198;51.464;-0.066;2023-03-05T09:32:38;102038.16;;;4.50;70.85
60355;BME280;46198;51.464;-0.066;2023-03-05T09:35:07;102039.16;;;4.49;70.68
60355;BME280;46198;51.464;-0.066;2023-03-05T09:37:36;102033.16;;;4.55;70.81
60355;BME280;46198;51.464;-0.066;2023-03-05T09:40:05;102034.81;;;4.65;72.12
60355;BME280;46198;51.464;-0.066;2023-03-05T09:43:00;102028.13;;;4.70;69.94
60355;BME280;46198;51.464;-0.066;2023-03-05T09:45:36;102033.97;;;4.65;69.71
60355;BME280;46198;51.464;-0.066;2023-03-05T09:48:14;102022.94;;;4.58;71.81
60355;BME280;46198;51.464;-0.066;2023-03-05T09:50:47;102031.41;;;4.63;72.16
60355;BME280;46198;51.464;-0.066;2023-03-05T09:53:24;102024.97;;;4.56;69.20
60355;BME280;46198;51.464;-0.066;2023-03-05T09:55:58;102022.19;;;4.48;69.82
60355;BME280;46198;51.464;-0.066;2023-03-05T09:58:33;102023.91;;;4.39;69.39
60355;BME280;46198;51.464;-0.066;2023-03-05T10:01:06;102023.06;;;4.39;69.59
60355;BME280;46198;51.464;-0.066;2023-03-05T10:03:43;102019.22;;;4.41;69.16
60355;BME280;46198;51.464;-0.066;2023-03-05T10:06:21;102011.41;;;4.48;69.52
60355;BME280;46198;51.464;-0.066;2023-03-05T10:08:54;102007.41;;;4.52;70.62
60355;BME280;46198;51.464;-0.066;2023-03-05T10:11:35;102007.66;;;4.59;70.31
60355;BME280;46198;51.464;-0.066;2023-03-05T10:14:06;102004.59;;;4.54;70.02
60355;BME280;46198;51.464;-0.066;2023-03-05T10:16:53;102000.19;;;4.53;68.83
60355;BME280;46198;51.464;-0.066;2023-03-05T10:22:28;101987.88;;;4.50;69.81
60355;BME280;46198;51.464;-0.066;2023-03-05T10:25:12;101984.34;;;4.50;69.26
60355;BME280;46198;51.464;-0.066;2023-03-05T10:27:47;101977.84;;;4.70;68.39
60355;BME280;46198;51.464;-0.066;2023-03-05T10:30:31;101973.38;;;4.61;68.82
60355;BME280;46198;51.464;-0.066;2023-03-05T10:33:11;101977.22;;;4.40;68.06
60355;BME280;46198;51.464;-0.066;2023-03-05T10:35:54;101968.22;;;4.50;69.48
60355;BME280;46198;51.464;-0.066;2023-03-05T10:41:39;101961.94;;;4.77;70.91
60355;BME280;46198;51.464;-0.066;2023-03-05T10:44:15;101960.47;;;4.82;67.88
60355;BME280;46198;51.464;-0.066;2023-03-05T10:46:44;101948.09;;;4.72;69.51
60355;BME280;46198;51.464;-0.066;2023-03-05T10:49:18;101962.84;;;4.85;68.41
60355;BME280;46198;51.464;-0.066;2023-03-05T10:51:50;101959.03;;;4.70;69.64
60355;BME280;46198;51.464;-0.066;2023-03-05T10:54:23;101949.03;;;4.62;67.63
60355;BME280;46198;51.464;-0.066;2023-03-05T10:57:02;101941.25;;;4.77;69.40
60355;BME280;46198;51.464;-0.066;2023-03-05T10:59:31;101939.50;;;4.68;69.05
60355;BME280;46198;51.464;-0.066;2023-03-05T11:02:05;101938.25;;;4.62;67.85
60355;BME280;46198;51.464;-0.066;2023-03-05T11:04:38;101939.50;;;4.68;70.55
60355;BME280;46198;51.464;-0.066;2023-03-05T11:07:34;101926.81;;;4.78;70.70
60355;BME280;46198;51.464;-0.066;2023-03-05T11:13:23;101934.88;;;4.78;70.41
60355;BME280;46198;51.464;-0.066;2023-03-05T11:15:58;101929.25;;;4.89;70.32
60355;BME280;46198;51.464;-0.066;2023-03-05T11:18:27;101919.72;;;4.77;70.39
60355;BME280;46198;51.464;-0.066;2023-03-05T11:21:09;101913.94;;;4.72;70.31
60355;BME280;46198;51.464;-0.066;2023-03-05T11:23:37;101914.81;;;4.73;70.25
60355;BME280;46198;51.464;-0.066;2023-03-05T11:26:18;101908.75;;;4.71;71.77
60355;BME280;46198;51.464;-0.066;2023-03-05T11:28:57;101898.22;;;4.59;70.49
60355;BME280;46198;51.464;-0.066;2023-03-05T11:31:27;101896.75;;;4.65;71.33
60355;BME280;46198;51.464;-0.066;2023-03-05T11:33:58;101907.75;;;4.54;71.50
60355;BME280;46198;51.464;-0.066;2023-03-05T11:40:18;101882.38;;;4.74;72.87
60355;BME280;46198;51.464;-0.066;2023-03-05T11:42:53;101885.94;;;4.57;72.16
60355;BME280;46198;51.464;-0.066;2023-03-05T11:45:23;101892.06;;;4.31;73.56
60355;BME280;46198;51.464;-0.066;2023-03-05T11:48:17;101877.94;;;4.29;73.10
60355;BME280;46198;51.464;-0.066;2023-03-05T11:50:50;101870.34;;;4.42;72.83
60355;BME280;46198;51.464;-0.066;2023-03-05T11:53:23;101874.09;;;4.50;73.77
60355;BME280;46198;51.464;-0.066;2023-03-05T11:55:58;101870.69;;;4.48;73.02
60355;BME280;46198;51.464;-0.066;2023-03-05T11:58:35;101866.19;;;4.48;74.03
60355;BME280;46198;51.464;-0.066;2023-03-05T12:01:10;101862.88;;;4.54;73.60
60355;BME280;46198;51.464;-0.066;2023-03-05T12:03:41;101870.53;;;4.31;73.59
60355;BME280;46198;51.464;-0.066;2023-03-05T12:06:16;101861.03;;;4.37;73.77
60355;BME280;46198;51.464;-0.066;2023-03-05T12:08:48;101861.31;;;4.34;74.31
60355;BME280;46198;51.464;-0.066;2023-03-05T12:11:25;101853.97;;;4.36;73.19
60355;BME280;46198;51.464;-0.066;2023-03-05T12:13:55;101848.38;;;4.29;73.33
60355;BME280;46198;51.464;-0.066;2023-03-05T12:16:28;101852.59;;;4.32;74.83
60355;BME280;46198;51.464;-0.066;2023-03-05T12:19:09;101841.03;;;4.39;73.74
60355;BME280;46198;51.464;-0.066;2023-03-05T12:21:47;101839.56;;;4.45;74.73
60355;BME280;46198;51.464;-0.066;2023-03-05T12:24:37;101825.16;;;4.10;73.30
60355;BME280;46198;51.464;-0.066;2023-03-05T12:27:15;101826.63;;;4.22;73.76
60355;BME280;46198;51.464;-0.066;2023-03-05T12:29:46;101814.25;;;4.12;73.80
60355;BME280;46198;51.464;-0.066;2023-03-05T12:35:02;101802.88;;;4.18;74.32
60355;BME280;46198;51.464;-0.066;2023-03-05T12:37:56;101799.06;;;4.03;74.68
60355;BME280;46198;51.464;-0.066;2023-03-05T12:40:27;101794.47;;;4.13;75.29
60355;BME280;46198;51.464;-0.066;2023-03-05T12:42:58;101788.69;;;4.08;74.46
60355;BME280;46198;51.464;-0.066;2023-03-05T12:45:38;101788.06;;;4.14;74.33
60355;BME280;46198;51.464;-0.066;2023-03-05T12:48:41;101783.41;;;4.16;74.49
60355;BME280;46198;51.464;-0.066;2023-03-05T12:51:12;101773.84;;;4.04;73.38
60355;BME280;46198;51.464;-0.066;2023-03-05T12:53:40;101764.44;;;3.99;73.53
60355;BME280;46198;51.464;-0.066;2023-03-05T12:56:17;101763.41;;;4.00;72.94
60355;BME280;46198;51.464;-0.066;2023-03-05T12:58:50;101758.44;;;4.06;72.71
60355;BME280;46198;51.464;-0.066;2023-03-05T13:01:28;101748.19;;;4.27;73.26
60355;BME280;46198;51.464;-0.066;2023-03-05T13:04:00;101725.59;;;4.38;73.49
60355;BME280;46198;51.464;-0.066;2023-03-05T13:06:36;101719.75;;;4.42;72.39
60355;BME280;46198;51.464;-0.066;2023-03-05T13:09:15;101718.88;;;4.42;70.91
60355;BME280;46198;51.464;-0.066;2023-03-05T13:11:46;101711.41;;;4.54;71.67
60355;BME280;46198;51.464;-0.066;2023-03-05T13:14:27;101701.03;;;4.59;72.06
60355;BME280;46198;51.464;-0.066;2023-03-05T13:16:56;101712.31;;;4.62;69.33
60355;BME280;46198;51.464;-0.066;2023-03-05T13:19:24;101711.78;;;4.59;69.34
60355;BME280;46198;51.464;-0.066;2023-03-05T13:21:57;101694.22;;;4.47;67.90
60355;BME280;46198;51.464;-0.066;2023-03-05T13:24:25;101691.63;;;4.63;69.07
60355;BME280;46198;51.464;-0.066;2023-03-05T13:26:53;101689.81;;;4.72;68.64
60355;BME280;46198;51.464;-0.066;2023-03-05T13:29:24;101690.75;;;4.54;67.46